sensor_id;sensor_type;location;lat;lon;timestamp;pressure;altitude;pressure_sealevel;temperature;humidity
54453;BME280;40363;52.270;10.546;2023-02-20T00:02:04;77878.97;;;-147.06;90.14
54453;BME280;40363;52.270;10.546;2023-02-20T00:04:31;77878.97;;;-147.06;90.47
54453;BME280;40363;52.270;10.546;2023-02-20T00:06:58;77874.84;;;-147.06;90.63
54453;BME280;40363;52.270;10.546;2023-02-20T00:09:24;77864.56;;;-147.06;90.45
54453;BME280;40363;52.270;10.546;2023-02-20T00:11:52;77858.41;;;-147.06;90.27
54453;BME280;40363;52.270;10.546;2023-02-20T00:14:19;77850.19;;;-147.06;90.27
54453;BME280;40363;52.270;10.546;2023-02-20T00:16:47;77854.28;;;-147.06;90.35
54453;BME280;40363;52.270;10.546;2023-02-20T00:19:13;77850.19;;;-147.06;90.51
54453;BME280;40363;52.270;10.546;2023-02-20T00:21:44;77844.00;;;-147.06;90.77
54453;BME280;40363;52.270;10.546;2023-02-20T00:24:11;77846.06;;;-147.06;90.83
54453;BME280;40363;52.270;10.546;2023-02-20T00:26:37;77841.97;;;-147.06;90.89
54453;BME280;40363;52.270;10.546;2023-02-20T00:29:04;77846.06;;;-147.06;91.11
54453;BME280;40363;52.270;10.546;2023-02-20T00:31:31;77833.72;;;-147.06;91.09
54453;BME280;40363;52.270;10.546;2023-02-20T00:33:59;77831.69;;;-147.06;91.36
54453;BME280;40363;52.270;10.546;2023-02-20T00:36:25;77815.22;;;-147.06;91.19
54453;BME280;40363;52.270;10.546;2023-02-20T00:38:52;77821.41;;;-147.06;91.45
54453;BME280;40363;52.270;10.546;2023-02-20T00:41:18;77831.69;;;-147.06;91.34
54453;BME280;40363;52.270;10.546;2023-02-20T00:43:46;77821.41;;;-147.06;91.45
54453;BME280;40363;52.270;10.546;2023-02-20T00:46:13;77817.28;;;-147.06;91.17
54453;BME280;40363;52.270;10.546;2023-02-20T00:48:41;77813.16;;;-147.06;91.28
54453;BME280;40363;52.270;10.546;2023-02-20T00:51:10;77804.94;;;-147.06;91.42
54453;BME280;40363;52.270;10.546;2023-02-20T00:53:36;77807.00;;;-147.06;91.77
54453;BME280;40363;52.270;10.546;2023-02-20T00:56:04;77798.78;;;-147.06;91.81
54453;BME280;40363;52.270;10.546;2023-02-20T00:58:30;77800.84;;;-147.06;91.45
54453;BME280;40363;52.270;10.546;2023-02-20T01:00:57;77802.88;;;-147.06;91.72
54453;BME280;40363;52.270;10.546;2023-02-20T01:03:24;77800.84;;;-147.06;91.64
54453;BME280;40363;52.270;10.546;2023-02-20T01:05:50;77796.72;;;-147.06;91.79
54453;BME280;40363;52.270;10.546;2023-02-20T01:08:18;77786.44;;;-147.06;91.69
54453;BME280;40363;52.270;10.546;2023-02-20T01:10:45;77784.38;;;-147.06;91.81
54453;BME280;40363;52.270;10.546;2023-02-20T01:13:12;77772.06;;;-147.06;91.65
54453;BME280;40363;52.270;10.546;2023-02-20T01:15:38;77761.78;;;-147.06;91.73
54453;BME280;40363;52.270;10.546;2023-02-20T01:18:05;77772.06;;;-147.06;91.77
54453;BME280;40363;52.270;10.546;2023-02-20T01:20:32;77757.66;;;-147.06;91.70
54453;BME280;40363;52.270;10.546;2023-02-20T01:22:59;77767.94;;;-147.06;91.74
54453;BME280;40363;52.270;10.546;2023-02-20T01:25:28;77757.66;;;-147.06;91.77
54453;BME280;40363;52.270;10.546;2023-02-20T01:27:55;77757.66;;;-147.06;91.81
54453;BME280;40363;52.270;10.546;2023-02-20T01:30:21;77751.50;;;-147.06;91.82
54453;BME280;40363;52.270;10.546;2023-02-20T01:32:48;77747.38;;;-147.06;91.53
54453;BME280;40363;52.270;10.546;2023-02-20T01:35:15;77730.94;;;-147.06;91.61
54453;BME280;40363;52.270;10.546;2023-02-20T01:37:42;77728.88;;;-147.06;91.74
54453;BME280;40363;52.270;10.546;2023-02-20T01:40:15;77706.25;;;-147.06;91.37
54453;BME280;40363;52.270;10.546;2023-02-20T01:42:43;77716.53;;;-147.06;91.58
54453;BME280;40363;52.270;10.546;2023-02-20T01:45:29;77718.59;;;-147.06;91.63
54453;BME280;40363;52.270;10.546;2023-02-20T01:48:00;77726.81;;;-147.06;91.69
54453;BME280;40363;52.270;10.546;2023-02-20T01:50:29;77724.75;;;-147.06;91.80
54453;BME280;40363;52.270;10.546;2023-02-20T01:53:01;77700.09;;;-147.06;91.35
54453;BME280;40363;52.270;10.546;2023-02-20T01:55:35;77702.16;;;-147.06;91.35
54453;BME280;40363;52.270;10.546;2023-02-20T01:58:08;77695.97;;;-147.06;91.33
54453;BME280;40363;52.270;10.546;2023-02-20T02:00:36;77685.69;;;-147.06;90.72
54453;BME280;40363;52.270;10.546;2023-02-20T02:03:05;77671.31;;;-147.06;90.49
54453;BME280;40363;52.270;10.546;2023-02-20T02:05:32;77665.13;;;-147.06;90.25
54453;BME280;40363;52.270;10.546;2023-02-20T02:08:02;77656.91;;;-147.06;90.17
54453;BME280;40363;52.270;10.546;2023-02-20T02:10:34;77669.25;;;-147.06;90.68
54453;BME280;40363;52.270;10.546;2023-02-20T02:13:02;77681.59;;;-147.06;91.00
54453;BME280;40363;52.270;10.546;2023-02-20T02:15:30;77677.47;;;-147.06;91.13
54453;BME280;40363;52.270;10.546;2023-02-20T02:18:05;77671.31;;;-147.06;90.62
54453;BME280;40363;52.270;10.546;2023-02-20T02:30:38;77669.25;;;-147.06;89.09
54453;BME280;40363;52.270;10.546;2023-02-20T02:36:30;77648.69;;;-147.06;88.16
54453;BME280;40363;52.270;10.546;2023-02-20T02:39:04;77667.19;;;-147.06;88.38
54453;BME280;40363;52.270;10.546;2023-02-20T02:41:39;77669.25;;;-147.06;88.34
54453;BME280;40363;52.270;10.546;2023-02-20T02:44:11;77656.91;;;-147.06;87.95
54453;BME280;40363;52.270;10.546;2023-02-20T02:46:42;77640.47;;;-147.06;87.65
54453;BME280;40363;52.270;10.546;2023-02-20T02:49:19;77638.41;;;-147.06;87.39
54453;BME280;40363;52.270;10.546;2023-02-20T02:51:51;77636.34;;;-147.06;87.18
54453;BME280;40363;52.270;10.546;2023-02-20T02:54:22;77640.47;;;-147.06;87.05
54453;BME280;40363;52.270;10.546;2023-02-20T02:56:52;77632.25;;;-147.06;86.73
54453;BME280;40363;52.270;10.546;2023-02-20T02:59:24;77632.25;;;-147.06;86.75
54453;BME280;40363;52.270;10.546;2023-02-20T03:01:58;77628.13;;;-147.06;86.38
54453;BME280;40363;52.270;10.546;2023-02-20T03:04:28;77632.25;;;-147.06;86.63
54453;BME280;40363;52.270;10.546;2023-02-20T03:07:01;77630.19;;;-147.06;86.96
54453;BME280;40363;52.270;10.546;2023-02-20T03:09:34;77619.91;;;-147.06;86.78
54453;BME280;40363;52.270;10.546;2023-02-20T03:12:04;77619.91;;;-147.06;86.30
54453;BME280;40363;52.270;10.546;2023-02-20T03:14:37;77626.06;;;-147.06;86.71
54453;BME280;40363;52.270;10.546;2023-02-20T03:17:28;77619.91;;;-147.06;86.71
54453;BME280;40363;52.270;10.546;2023-02-20T03:19:58;77632.25;;;-147.06;86.99
54453;BME280;40363;52.270;10.546;2023-02-20T03:22:30;77638.41;;;-147.06;86.87
54453;BME280;40363;52.270;10.546;2023-02-20T03:25:01;77640.47;;;-147.06;86.78
54453;BME280;40363;52.270;10.546;2023-02-20T03:27:36;77634.31;;;-147.06;86.88
54453;BME280;40363;52.270;10.546;2023-02-20T03:30:11;77621.97;;;-147.06;86.65
54453;BME280;40363;52.270;10.546;2023-02-20T03:32:42;77628.13;;;-147.06;86.50
54453;BME280;40363;52.270;10.546;2023-02-20T03:35:29;77628.13;;;-147.06;86.55
54453;BME280;40363;52.270;10.546;2023-02-20T03:38:16;77619.91;;;-147.06;86.30
54453;BME280;40363;52.270;10.546;2023-02-20T03:41:02;77619.91;;;-147.06;86.12
54453;BME280;40363;52.270;10.546;2023-02-20T03:43:47;77615.78;;;-147.06;86.25
54453;BME280;40363;52.270;10.546;2023-02-20T03:46:20;77607.56;;;-147.06;86.19
54453;BME280;40363;52.270;10.546;2023-02-20T03:48:51;77607.56;;;-147.06;86.09
54453;BME280;40363;52.270;10.546;2023-02-20T03:51:19;77603.47;;;-147.06;86.04
54453;BME280;40363;52.270;10.546;2023-02-20T03:53:47;77587.00;;;-147.06;85.86
54453;BME280;40363;52.270;10.546;2023-02-20T03:56:18;77603.47;;;-147.06;85.88
54453;BME280;40363;52.270;10.546;2023-02-20T03:58:48;77597.28;;;-147.06;85.76
54453;BME280;40363;52.270;10.546;2023-02-20T04:01:19;77582.91;;;-147.06;85.73
54453;BME280;40363;52.270;10.546;2023-02-20T04:03:48;77570.56;;;-147.06;85.32
54453;BME280;40363;52.270;10.546;2023-02-20T04:06:18;77570.56;;;-147.06;85.71
54453;BME280;40363;52.270;10.546;2023-02-20T04:08:53;77554.13;;;-147.06;85.42
54453;BME280;40363;52.270;10.546;2023-02-20T04:11:24;77541.78;;;-147.06;85.27
54453;BME280;40363;52.270;10.546;2023-02-20T04:13:53;77541.78;;;-147.06;85.54
54453;BME280;40363;52.270;10.546;2023-02-20T04:16:21;77535.63;;;-147.06;85.45
54453;BME280;40363;52.270;10.546;2023-02-20T04:18:48;77535.63;;;-147.06;85.49
54453;BME280;40363;52.270;10.546;2023-02-20T04:21:19;77537.66;;;-147.06;85.26
54453;BME280;40363;52.270;10.546;2023-02-20T04:23:51;77533.56;;;-147.06;85.57
54453;BME280;40363;52.270;10.546;2023-02-20T04:26:24;77533.56;;;-147.06;85.53
54453;BME280;40363;52.270;10.546;2023-02-20T04:28:54;77527.38;;;-147.06;85.50
54453;BME280;40363;52.270;10.546;2023-02-20T04:31:21;77527.38;;;-147.06;85.64
54453;BME280;40363;52.270;10.546;2023-02-20T04:33:48;77527.38;;;-147.06;85.75
54453;BME280;40363;52.270;10.546;2023-02-20T04:36:16;77523.28;;;-147.06;85.49
54453;BME280;40363;52.270;10.546;2023-02-20T04:38:43;77533.56;;;-147.06;85.97
54453;BME280;40363;52.270;10.546;2023-02-20T04:41:11;77523.28;;;-147.06;85.92
54453;BME280;40363;52.270;10.546;2023-02-20T04:43:38;77508.88;;;-147.06;86.13
54453;BME280;40363;52.270;10.546;2023-02-20T04:46:04;77517.13;;;-147.06;86.30
54453;BME280;40363;52.270;10.546;2023-02-20T04:48:33;77517.13;;;-147.06;86.43
54453;BME280;40363;52.270;10.546;2023-02-20T04:51:00;77504.78;;;-147.06;86.33
54453;BME280;40363;52.270;10.546;2023-02-20T04:53:27;77508.88;;;-147.06;86.49
54453;BME280;40363;52.270;10.546;2023-02-20T04:55:54;77508.88;;;-147.06;86.51
54453;BME280;40363;52.270;10.546;2023-02-20T04:58:22;77492.44;;;-147.06;86.70
54453;BME280;40363;52.270;10.546;2023-02-20T05:00:48;77484.22;;;-147.06;86.46
54453;BME280;40363;52.270;10.546;2023-02-20T05:03:15;77480.09;;;-147.06;86.49
54453;BME280;40363;52.270;10.546;2023-02-20T05:05:42;77482.16;;;-147.06;86.37
54453;BME280;40363;52.270;10.546;2023-02-20T05:08:10;77494.50;;;-147.06;86.64
54453;BME280;40363;52.270;10.546;2023-02-20T05:10:37;77492.44;;;-147.06;86.72
54453;BME280;40363;52.270;10.546;2023-02-20T05:13:04;77476.00;;;-147.06;86.27
54453;BME280;40363;52.270;10.546;2023-02-20T05:15:32;77469.81;;;-147.06;86.32
54453;BME280;40363;52.270;10.546;2023-02-20T05:17:59;77473.94;;;-147.06;86.22
54453;BME280;40363;52.270;10.546;2023-02-20T05:20:28;77478.06;;;-147.06;86.41
54453;BME280;40363;52.270;10.546;2023-02-20T05:23:13;77480.09;;;-147.06;86.64
54453;BME280;40363;52.270;10.546;2023-02-20T05:25:40;77488.34;;;-147.06;86.63
54453;BME280;40363;52.270;10.546;2023-02-20T05:28:10;77480.09;;;-147.06;86.88
54453;BME280;40363;52.270;10.546;2023-02-20T05:33:30;77486.28;;;-147.06;86.88
54453;BME280;40363;52.270;10.546;2023-02-20T05:35:58;77484.22;;;-147.06;87.18
54453;BME280;40363;52.270;10.546;2023-02-20T05:38:28;77471.88;;;-147.06;87.08
54453;BME280;40363;52.270;10.546;2023-02-20T05:40:57;77473.94;;;-147.06;87.41
54453;BME280;40363;52.270;10.546;2023-02-20T05:43:24;77459.53;;;-147.06;87.18
54453;BME280;40363;52.270;10.546;2023-02-20T05:45:52;77449.28;;;-147.06;87.28
54453;BME280;40363;52.270;10.546;2023-02-20T05:48:18;77447.22;;;-147.06;87.23
54453;BME280;40363;52.270;10.546;2023-02-20T05:50:45;77439.00;;;-147.06;87.15
54453;BME280;40363;52.270;10.546;2023-02-20T05:53:14;77430.75;;;-147.06;87.17
54453;BME280;40363;52.270;10.546;2023-02-20T05:55:43;77418.44;;;-147.06;87.06
54453;BME280;40363;52.270;10.546;2023-02-20T05:58:10;77414.31;;;-147.06;86.88
54453;BME280;40363;52.270;10.546;2023-02-20T06:00:37;77420.50;;;-147.06;86.63
54453;BME280;40363;52.270;10.546;2023-02-20T06:03:06;77414.31;;;-147.06;86.63
54453;BME280;40363;52.270;10.546;2023-02-20T06:05:35;77416.38;;;-147.06;86.57
54453;BME280;40363;52.270;10.546;2023-02-20T06:08:02;77416.38;;;-147.06;86.74
54453;BME280;40363;52.270;10.546;2023-02-20T06:13:28;77406.09;;;-147.06;86.63
54453;BME280;40363;52.270;10.546;2023-02-20T06:15:56;77404.03;;;-147.06;86.79
54453;BME280;40363;52.270;10.546;2023-02-20T06:18:26;77404.03;;;-147.06;86.92
54453;BME280;40363;52.270;10.546;2023-02-20T06:20:53;77401.97;;;-147.06;86.95
54453;BME280;40363;52.270;10.546;2023-02-20T06:23:19;77401.97;;;-147.06;87.21
54453;BME280;40363;52.270;10.546;2023-02-20T06:25:46;77399.94;;;-147.06;87.13
54453;BME280;40363;52.270;10.546;2023-02-20T06:28:13;77397.88;;;-147.06;87.40
54453;BME280;40363;52.270;10.546;2023-02-20T06:30:39;77406.09;;;-147.06;87.02
54453;BME280;40363;52.270;10.546;2023-02-20T06:33:06;77404.03;;;-147.06;86.93
54453;BME280;40363;52.270;10.546;2023-02-20T06:35:34;77410.22;;;-147.06;87.38
54453;BME280;40363;52.270;10.546;2023-02-20T06:38:01;77416.38;;;-147.06;87.10
54453;BME280;40363;52.270;10.546;2023-02-20T06:40:27;77401.97;;;-147.06;87.38
54453;BME280;40363;52.270;10.546;2023-02-20T06:42:54;77397.88;;;-147.06;87.03
54453;BME280;40363;52.270;10.546;2023-02-20T06:45:21;77397.88;;;-147.06;87.03
54453;BME280;40363;52.270;10.546;2023-02-20T06:47:47;77395.81;;;-147.06;87.26
54453;BME280;40363;52.270;10.546;2023-02-20T06:50:14;77397.88;;;-147.06;87.26
54453;BME280;40363;52.270;10.546;2023-02-20T06:52:42;77397.88;;;-147.06;87.33
54453;BME280;40363;52.270;10.546;2023-02-20T06:55:09;77387.59;;;-147.06;87.22
54453;BME280;40363;52.270;10.546;2023-02-20T06:57:36;77391.72;;;-147.06;87.16
54453;BME280;40363;52.270;10.546;2023-02-20T07:00:04;77401.97;;;-147.06;87.31
54453;BME280;40363;52.270;10.546;2023-02-20T07:02:30;77389.66;;;-147.06;87.45
54453;BME280;40363;52.270;10.546;2023-02-20T07:04:57;77385.53;;;-147.06;87.16
54453;BME280;40363;52.270;10.546;2023-02-20T07:07:24;77381.44;;;-147.06;87.08
54453;BME280;40363;52.270;10.546;2023-02-20T07:09:52;77371.16;;;-147.06;86.85
54453;BME280;40363;52.270;10.546;2023-02-20T07:12:18;77367.03;;;-147.06;86.64
54453;BME280;40363;52.270;10.546;2023-02-20T07:14:45;77367.03;;;-147.06;86.79
54453;BME280;40363;52.270;10.546;2023-02-20T07:17:12;77358.81;;;-147.06;86.66
54453;BME280;40363;52.270;10.546;2023-02-20T07:19:38;77348.53;;;-147.06;86.14
54453;BME280;40363;52.270;10.546;2023-02-20T07:22:05;77338.25;;;-147.06;85.96
54453;BME280;40363;52.270;10.546;2023-02-20T07:24:31;77327.97;;;-147.06;86.07
54453;BME280;40363;52.270;10.546;2023-02-20T07:27:02;77332.09;;;-147.06;85.51
54453;BME280;40363;52.270;10.546;2023-02-20T07:29:28;77336.19;;;-147.06;85.42
54453;BME280;40363;52.270;10.546;2023-02-20T07:31:55;77327.97;;;-147.06;85.26
54453;BME280;40363;52.270;10.546;2023-02-20T07:34:21;77332.09;;;-147.06;84.77
54453;BME280;40363;52.270;10.546;2023-02-20T07:36:48;77332.09;;;-147.06;84.75
54453;BME280;40363;52.270;10.546;2023-02-20T07:39:15;77319.75;;;-147.06;84.44
54453;BME280;40363;52.270;10.546;2023-02-20T07:41:41;77305.34;;;-147.06;83.91
54453;BME280;40363;52.270;10.546;2023-02-20T07:44:09;77297.13;;;-147.06;83.53
54453;BME280;40363;52.270;10.546;2023-02-20T07:46:37;77288.91;;;-147.06;83.04
54453;BME280;40363;52.270;10.546;2023-02-20T07:49:04;77282.75;;;-147.06;83.02
54453;BME280;40363;52.270;10.546;2023-02-20T07:51:31;77270.41;;;-147.06;82.63
54453;BME280;40363;52.270;10.546;2023-02-20T07:53:58;77258.06;;;-147.06;82.45
54453;BME280;40363;52.270;10.546;2023-02-20T07:56:25;77249.84;;;-147.06;82.07
54453;BME280;40363;52.270;10.546;2023-02-20T07:58:51;77227.25;;;-147.06;81.65
54453;BME280;40363;52.270;10.546;2023-02-20T08:01:20;77231.34;;;-147.06;81.70
54453;BME280;40363;52.270;10.546;2023-02-20T08:03:46;77210.78;;;-147.06;80.76
54453;BME280;40363;52.270;10.546;2023-02-20T08:06:16;77198.47;;;-147.06;80.20
54453;BME280;40363;52.270;10.546;2023-02-20T08:08:46;77196.41;;;-147.06;79.97
54453;BME280;40363;52.270;10.546;2023-02-20T08:11:13;77182.00;;;-147.06;79.36
54453;BME280;40363;52.270;10.546;2023-02-20T08:13:41;77177.91;;;-147.06;79.09
54453;BME280;40363;52.270;10.546;2023-02-20T08:16:07;77165.56;;;-147.06;78.81
54453;BME280;40363;52.270;10.546;2023-02-20T08:18:35;77155.28;;;-147.06;78.52
54453;BME280;40363;52.270;10.546;2023-02-20T08:21:02;77134.72;;;-147.06;77.70
54453;BME280;40363;52.270;10.546;2023-02-20T08:23:29;77118.28;;;-147.06;76.74
54453;BME280;40363;52.270;10.546;2023-02-20T08:25:56;77118.28;;;-147.06;76.70
54453;BME280;40363;52.270;10.546;2023-02-20T08:28:24;77105.94;;;-147.06;76.32
54453;BME280;40363;52.270;10.546;2023-02-20T08:30:53;77089.50;;;-147.06;75.58
54453;BME280;40363;52.270;10.546;2023-02-20T08:33:20;77097.72;;;-147.06;75.50
54453;BME280;40363;52.270;10.546;2023-02-20T08:35:48;77085.41;;;-147.06;75.27
54453;BME280;40363;52.270;10.546;2023-02-20T08:38:23;77071.00;;;-147.06;74.98
54453;BME280;40363;52.270;10.546;2023-02-20T08:40:50;77050.44;;;-147.06;74.29
54453;BME280;40363;52.270;10.546;2023-02-20T08:43:17;77040.16;;;-147.06;73.93
54453;BME280;40363;52.270;10.546;2023-02-20T08:45:44;77052.50;;;-147.06;74.29
54453;BME280;40363;52.270;10.546;2023-02-20T08:48:11;77013.44;;;-147.06;73.48
54453;BME280;40363;52.270;10.546;2023-02-20T08:50:38;76994.94;;;-147.06;72.96
54453;BME280;40363;52.270;10.546;2023-02-20T08:53:06;76999.06;;;-147.06;72.40
54453;BME280;40363;52.270;10.546;2023-02-20T08:55:33;76949.72;;;-147.06;71.29
54453;BME280;40363;52.270;10.546;2023-02-20T08:58:00;76908.63;;;-147.06;69.75
54453;BME280;40363;52.270;10.546;2023-02-20T09:00:26;76877.78;;;-147.06;68.97
54453;BME280;40363;52.270;10.546;2023-02-20T09:02:53;76881.88;;;-147.06;68.60
54453;BME280;40363;52.270;10.546;2023-02-20T09:05:20;76873.66;;;-147.06;68.71
54453;BME280;40363;52.270;10.546;2023-02-20T09:07:47;76871.63;;;-147.06;68.14
54453;BME280;40363;52.270;10.546;2023-02-20T09:10:17;76886.00;;;-147.06;68.47
54453;BME280;40363;52.270;10.546;2023-02-20T09:12:44;76883.94;;;-147.06;68.46
54453;BME280;40363;52.270;10.546;2023-02-20T09:15:11;76877.78;;;-147.06;68.17
54453;BME280;40363;52.270;10.546;2023-02-20T09:17:42;76873.66;;;-147.06;68.27
54453;BME280;40363;52.270;10.546;2023-02-20T09:20:09;76849.00;;;-147.06;68.03
54453;BME280;40363;52.270;10.546;2023-02-20T09:22:36;76820.22;;;-147.06;66.50
54453;BME280;40363;52.270;10.546;2023-02-20T09:25:03;76775.00;;;-147.06;66.10
54453;BME280;40363;52.270;10.546;2023-02-20T09:27:32;76750.34;;;-147.06;65.11
54453;BME280;40363;52.270;10.546;2023-02-20T09:29:59;76762.66;;;-147.06;65.07
54453;BME280;40363;52.270;10.546;2023-02-20T09:32:28;76768.84;;;-147.06;64.96
54453;BME280;40363;52.270;10.546;2023-02-20T09:34:55;76785.28;;;-147.06;65.57
54453;BME280;40363;52.270;10.546;2023-02-20T09:37:22;76783.22;;;-147.06;66.12
54453;BME280;40363;52.270;10.546;2023-02-20T09:39:49;76807.88;;;-147.06;67.11
54453;BME280;40363;52.270;10.546;2023-02-20T09:42:24;76801.72;;;-147.06;67.65
54453;BME280;40363;52.270;10.546;2023-02-20T09:45:03;76820.22;;;-147.06;68.09
54453;BME280;40363;52.270;10.546;2023-02-20T09:47:41;76818.16;;;-147.06;69.15
54453;BME280;40363;52.270;10.546;2023-02-20T09:50:14;76812.00;;;-147.06;69.38
54453;BME280;40363;52.270;10.546;2023-02-20T09:52:45;76859.28;;;-147.06;70.74
54453;BME280;40363;52.270;10.546;2023-02-20T09:55:19;76851.06;;;-147.06;71.07
54453;BME280;40363;52.270;10.546;2023-02-20T09:57:48;76875.72;;;-147.06;72.13
54453;BME280;40363;52.270;10.546;2023-02-20T10:00:21;76873.66;;;-147.06;72.53
54453;BME280;40363;52.270;10.546;2023-02-20T10:02:54;76890.13;;;-147.06;73.18
54453;BME280;40363;52.270;10.546;2023-02-20T10:05:27;76894.22;;;-147.06;73.56
54453;BME280;40363;52.270;10.546;2023-02-20T10:07:55;76902.44;;;-147.06;74.24
54453;BME280;40363;52.270;10.546;2023-02-20T10:10:24;76900.38;;;-147.06;74.24
54453;BME280;40363;52.270;10.546;2023-02-20T10:13:00;76900.38;;;-147.06;74.70
54453;BME280;40363;52.270;10.546;2023-02-20T10:15:36;76904.50;;;-147.06;75.26
54453;BME280;40363;52.270;10.546;2023-02-20T10:18:12;76908.63;;;-147.06;75.91
54453;BME280;40363;52.270;10.546;2023-02-20T10:20:49;76892.16;;;-147.06;75.90
54453;BME280;40363;52.270;10.546;2023-02-20T10:23:27;76910.66;;;-147.06;76.63
54453;BME280;40363;52.270;10.546;2023-02-20T10:25:59;76929.16;;;-147.06;77.36
54453;BME280;40363;52.270;10.546;2023-02-20T10:28:28;76920.94;;;-147.06;77.82
54453;BME280;40363;52.270;10.546;2023-02-20T10:30:58;76927.13;;;-147.06;77.98
54453;BME280;40363;52.270;10.546;2023-02-20T10:33:30;76916.84;;;-147.06;78.07
54453;BME280;40363;52.270;10.546;2023-02-20T10:36:02;76912.72;;;-147.06;78.13
54453;BME280;40363;52.270;10.546;2023-02-20T10:38:36;76916.84;;;-147.06;78.70
54453;BME280;40363;52.270;10.546;2023-02-20T10:41:07;76916.84;;;-147.06;79.16
54453;BME280;40363;52.270;10.546;2023-02-20T10:43:40;76912.72;;;-147.06;79.13
54453;BME280;40363;52.270;10.546;2023-02-20T10:46:15;76920.94;;;-147.06;79.59
54453;BME280;40363;52.270;10.546;2023-02-20T10:48:44;76916.84;;;-147.06;79.92
54453;BME280;40363;52.270;10.546;2023-02-20T10:51:14;76918.88;;;-147.06;80.03
54453;BME280;40363;52.270;10.546;2023-02-20T10:53:45;76912.72;;;-147.06;80.15
54453;BME280;40363;52.270;10.546;2023-02-20T10:56:17;76923.00;;;-147.06;80.43
54453;BME280;40363;52.270;10.546;2023-02-20T10:58:51;76931.22;;;-147.06;80.63
54453;BME280;40363;52.270;10.546;2023-02-20T11:01:22;76947.66;;;-147.06;81.41
54453;BME280;40363;52.270;10.546;2023-02-20T11:03:56;76941.50;;;-147.06;81.60
54453;BME280;40363;52.270;10.546;2023-02-20T11:06:28;76947.66;;;-147.06;81.77
54453;BME280;40363;52.270;10.546;2023-02-20T11:08:56;76949.72;;;-147.06;82.04
54453;BME280;40363;52.270;10.546;2023-02-20T11:11:27;76949.72;;;-147.06;82.26
54453;BME280;40363;52.270;10.546;2023-02-20T11:13:57;76953.84;;;-147.06;82.13
54453;BME280;40363;52.270;10.546;2023-02-20T11:16:29;76955.88;;;-147.06;82.29
54453;BME280;40363;52.270;10.546;2023-02-20T11:19:04;76949.72;;;-147.06;82.39
54453;BME280;40363;52.270;10.546;2023-02-20T11:21:37;76937.38;;;-147.06;82.55
54453;BME280;40363;52.270;10.546;2023-02-20T11:24:27;76941.50;;;-147.06;82.96
54453;BME280;40363;52.270;10.546;2023-02-20T11:26:56;76949.72;;;-147.06;83.61
54453;BME280;40363;52.270;10.546;2023-02-20T11:29:23;76949.72;;;-147.06;83.66
54453;BME280;40363;52.270;10.546;2023-02-20T11:31:52;76945.63;;;-147.06;83.99
54453;BME280;40363;52.270;10.546;2023-02-20T11:34:21;76941.50;;;-147.06;83.85
54453;BME280;40363;52.270;10.546;2023-02-20T11:36:50;76943.56;;;-147.06;84.32
54453;BME280;40363;52.270;10.546;2023-02-20T11:39:23;76937.38;;;-147.06;84.27
54453;BME280;40363;52.270;10.546;2023-02-20T11:42:04;76939.44;;;-147.06;84.47
54453;BME280;40363;52.270;10.546;2023-02-20T11:44:32;76947.66;;;-147.06;84.63
54453;BME280;40363;52.270;10.546;2023-02-20T11:47:22;76945.63;;;-147.06;84.88
54453;BME280;40363;52.270;10.546;2023-02-20T11:50:08;76941.50;;;-147.06;84.65
54453;BME280;40363;52.270;10.546;2023-02-20T11:52:35;76947.66;;;-147.06;85.10
54453;BME280;40363;52.270;10.546;2023-02-20T11:55:11;76933.28;;;-147.06;84.90
54453;BME280;40363;52.270;10.546;2023-02-20T11:57:44;76947.66;;;-147.06;85.26
54453;BME280;40363;52.270;10.546;2023-02-20T12:00:14;76941.50;;;-147.06;85.33
54453;BME280;40363;52.270;10.546;2023-02-20T12:02:53;76937.38;;;-147.06;85.52
54453;BME280;40363;52.270;10.546;2023-02-20T12:05:21;76945.63;;;-147.06;85.61
54453;BME280;40363;52.270;10.546;2023-02-20T12:08:01;76931.22;;;-147.06;85.25
54453;BME280;40363;52.270;10.546;2023-02-20T12:10:34;76925.06;;;-147.06;85.28
54453;BME280;40363;52.270;10.546;2023-02-20T12:13:02;76937.38;;;-147.06;85.79
54453;BME280;40363;52.270;10.546;2023-02-20T12:15:30;76925.06;;;-147.06;85.01
54453;BME280;40363;52.270;10.546;2023-02-20T12:18:23;76923.00;;;-147.06;85.41
54453;BME280;40363;52.270;10.546;2023-02-20T12:20:57;76947.66;;;-147.06;85.81
54453;BME280;40363;52.270;10.546;2023-02-20T12:23:32;76935.34;;;-147.06;85.74
54453;BME280;40363;52.270;10.546;2023-02-20T12:26:13;76937.38;;;-147.06;86.02
54453;BME280;40363;52.270;10.546;2023-02-20T12:28:51;76941.50;;;-147.06;85.91
54453;BME280;40363;52.270;10.546;2023-02-20T12:31:25;76957.94;;;-147.06;85.98
54453;BME280;40363;52.270;10.546;2023-02-20T12:34:06;76966.16;;;-147.06;86.47
54453;BME280;40363;52.270;10.546;2023-02-20T12:36:36;76978.50;;;-147.06;86.93
54453;BME280;40363;52.270;10.546;2023-02-20T12:39:16;76966.16;;;-147.06;86.72
54453;BME280;40363;52.270;10.546;2023-02-20T12:41:51;76957.94;;;-147.06;87.03
54453;BME280;40363;52.270;10.546;2023-02-20T12:44:33;76957.94;;;-147.06;86.75
54453;BME280;40363;52.270;10.546;2023-02-20T12:47:13;76968.22;;;-147.06;87.16
54453;BME280;40363;52.270;10.546;2023-02-20T12:49:53;76953.84;;;-147.06;86.65
54453;BME280;40363;52.270;10.546;2023-02-20T12:52:50;76986.72;;;-147.06;87.63
54453;BME280;40363;52.270;10.546;2023-02-20T12:55:25;76978.50;;;-147.06;87.61
54453;BME280;40363;52.270;10.546;2023-02-20T12:58:04;76982.63;;;-147.06;87.87
54453;BME280;40363;52.270;10.546;2023-02-20T13:00:38;76988.78;;;-147.06;88.46
54453;BME280;40363;52.270;10.546;2023-02-20T13:03:09;76986.72;;;-147.06;88.54
54453;BME280;40363;52.270;10.546;2023-02-20T13:05:41;77009.34;;;-147.06;88.70